sensor_id;sensor_type;location;lat;lon;timestamp;temperature;humidity
39983;DHT22;25670;44.782;10.356;2022-08-25T00:01:54;21.40;99.90
39983;DHT22;25670;44.782;10.356;2022-08-25T00:04:21;21.30;99.90
39983;DHT22;25670;44.782;10.356;2022-08-25T00:06:48;21.50;99.90
39983;DHT22;25670;44.782;10.356;2022-08-25T00:09:17;21.40;99.90
39983;DHT22;25670;44.782;10.356;2022-08-25T00:11:45;21.40;99.90
39983;DHT22;25670;44.782;10.356;2022-08-25T00:14:16;21.30;99.90
39983;DHT22;25670;44.782;10.356;2022-08-25T00:16:43;21.50;99.90
39983;DHT22;25670;44.782;10.356;2022-08-25T00:19:13;21.10;99.90
39983;DHT22;25670;44.782;10.356;2022-08-25T00:21:41;21.30;99.90
39983;DHT22;25670;44.782;10.356;2022-08-25T00:24:09;21.00;99.90
39983;DHT22;25670;44.782;10.356;2022-08-25T00:26:38;21.20;99.90
39983;DHT22;25670;44.782;10.356;2022-08-25T00:29:05;21.30;99.90
39983;DHT22;25670;44.782;10.356;2022-08-25T00:31:32;21.10;99.90
39983;DHT22;25670;44.782;10.356;2022-08-25T00:36:26;21.30;99.90
39983;DHT22;25670;44.782;10.356;2022-08-25T00:38:53;21.20;99.90
39983;DHT22;25670;44.782;10.356;2022-08-25T00:41:22;21.10;99.90
39983;DHT22;25670;44.782;10.356;2022-08-25T00:46:23;21.10;99.90
39983;DHT22;25670;44.782;10.356;2022-08-25T00:48:55;21.30;99.90
39983;DHT22;25670;44.782;10.356;2022-08-25T00:51:32;21.00;99.90
39983;DHT22;25670;44.782;10.356;2022-08-25T00:54:01;21.20;99.90
39983;DHT22;25670;44.782;10.356;2022-08-25T00:56:28;21.10;99.90
39983;DHT22;25670;44.782;10.356;2022-08-25T00:58:57;21.10;99.90
39983;DHT22;25670;44.782;10.356;2022-08-25T01:01:25;21.10;99.90
39983;DHT22;25670;44.782;10.356;2022-08-25T01:03:51;21.10;99.90
39983;DHT22;25670;44.782;10.356;2022-08-25T01:06:18;21.30;99.90
39983;DHT22;25670;44.782;10.356;2022-08-25T01:08:44;21.10;99.90
39983;DHT22;25670;44.782;10.356;2022-08-25T01:11:11;21.10;99.90
39983;DHT22;25670;44.782;10.356;2022-08-25T01:13:45;21.00;99.90
39983;DHT22;25670;44.782;10.356;2022-08-25T01:16:14;20.90;99.90
39983;DHT22;25670;44.782;10.356;2022-08-25T01:21:41;20.70;99.90
39983;DHT22;25670;44.782;10.356;2022-08-25T01:24:11;20.90;99.90
39983;DHT22;25670;44.782;10.356;2022-08-25T01:26:39;20.70;99.90
39983;DHT22;25670;44.782;10.356;2022-08-25T01:29:07;21.00;99.90
39983;DHT22;25670;44.782;10.356;2022-08-25T01:31:47;21.00;99.90
39983;DHT22;25670;44.782;10.356;2022-08-25T01:34:15;21.10;99.90
39983;DHT22;25670;44.782;10.356;2022-08-25T01:36:42;21.10;99.90
39983;DHT22;25670;44.782;10.356;2022-08-25T01:39:10;21.10;99.90
39983;DHT22;25670;44.782;10.356;2022-08-25T01:44:24;21.00;99.90
39983;DHT22;25670;44.782;10.356;2022-08-25T01:46:52;20.60;99.90
39983;DHT22;25670;44.782;10.356;2022-08-25T01:49:20;21.00;99.90
39983;DHT22;25670;44.782;10.356;2022-08-25T01:52:00;21.10;99.90
39983;DHT22;25670;44.782;10.356;2022-08-25T01:54:26;20.90;99.90
39983;DHT22;25670;44.782;10.356;2022-08-25T01:56:53;21.10;99.90
39983;DHT22;25670;44.782;10.356;2022-08-25T01:59:20;21.00;99.90
39983;DHT22;25670;44.782;10.356;2022-08-25T02:01:47;20.90;99.90
39983;DHT22;25670;44.782;10.356;2022-08-25T02:04:13;20.90;99.90
39983;DHT22;25670;44.782;10.356;2022-08-25T02:06:39;20.80;99.90
39983;DHT22;25670;44.782;10.356;2022-08-25T02:09:09;20.70;99.90
39983;DHT22;25670;44.782;10.356;2022-08-25T02:11:38;20.70;99.90
39983;DHT22;25670;44.782;10.356;2022-08-25T02:14:05;20.70;99.90
39983;DHT22;25670;44.782;10.356;2022-08-25T02:16:37;20.60;99.90
39983;DHT22;25670;44.782;10.356;2022-08-25T02:19:06;20.50;99.90
39983;DHT22;25670;44.782;10.356;2022-08-25T02:21:33;20.40;99.90
39983;DHT22;25670;44.782;10.356;2022-08-25T02:24:01;20.40;99.90
39983;DHT22;25670;44.782;10.356;2022-08-25T02:26:27;20.40;99.90
39983;DHT22;25670;44.782;10.356;2022-08-25T02:28:54;20.40;99.90
39983;DHT22;25670;44.782;10.356;2022-08-25T02:31:23;20.40;99.90
39983;DHT22;25670;44.782;10.356;2022-08-25T02:33:50;20.50;99.90
39983;DHT22;25670;44.782;10.356;2022-08-25T02:36:17;20.50;99.90
39983;DHT22;25670;44.782;10.356;2022-08-25T02:38:44;20.40;99.90
39983;DHT22;25670;44.782;10.356;2022-08-25T02:41:14;20.40;99.90
39983;DHT22;25670;44.782;10.356;2022-08-25T02:43:41;20.40;99.90
39983;DHT22;25670;44.782;10.356;2022-08-25T02:46:10;20.40;99.90
39983;DHT22;25670;44.782;10.356;2022-08-25T02:48:37;20.40;99.90
39983;DHT22;25670;44.782;10.356;2022-08-25T02:51:05;20.40;99.90
39983;DHT22;25670;44.782;10.356;2022-08-25T02:53:36;20.40;99.90
39983;DHT22;25670;44.782;10.356;2022-08-25T02:56:06;20.30;99.90
39983;DHT22;25670;44.782;10.356;2022-08-25T02:58:33;20.30;99.90
39983;DHT22;25670;44.782;10.356;2022-08-25T03:00:59;20.30;99.90
39983;DHT22;25670;44.782;10.356;2022-08-25T03:03:26;20.30;99.90
39983;DHT22;25670;44.782;10.356;2022-08-25T03:05:52;20.20;99.90
39983;DHT22;25670;44.782;10.356;2022-08-25T03:08:23;20.20;99.90
39983;DHT22;25670;44.782;10.356;2022-08-25T03:10:49;20.10;99.90
39983;DHT22;25670;44.782;10.356;2022-08-25T03:13:16;20.00;99.90
39983;DHT22;25670;44.782;10.356;2022-08-25T08:19:13;26.30;99.90
39983;DHT22;25670;44.782;10.356;2022-08-25T08:21:40;26.50;99.90
39983;DHT22;25670;44.782;10.356;2022-08-25T08:24:07;26.60;99.90
39983;DHT22;25670;44.782;10.356;2022-08-25T08:26:34;26.60;99.90
39983;DHT22;25670;44.782;10.356;2022-08-25T08:29:00;26.60;99.90
39983;DHT22;25670;44.782;10.356;2022-08-25T08:31:27;26.70;99.90
39983;DHT22;25670;44.782;10.356;2022-08-25T08:33:55;26.80;99.90
39983;DHT22;25670;44.782;10.356;2022-08-25T08:36:22;26.90;99.90
39983;DHT22;25670;44.782;10.356;2022-08-25T08:38:48;27.00;99.90
39983;DHT22;25670;44.782;10.356;2022-08-25T08:49:48;27.30;99.90
39983;DHT22;25670;44.782;10.356;2022-08-25T08:52:19;27.40;99.90
39983;DHT22;25670;44.782;10.356;2022-08-25T08:54:59;27.50;99.90
39983;DHT22;25670;44.782;10.356;2022-08-25T08:57:28;27.50;99.90
39983;DHT22;25670;44.782;10.356;2022-08-25T09:00:00;27.60;99.90
39983;DHT22;25670;44.782;10.356;2022-08-25T09:02:47;27.60;99.90
39983;DHT22;25670;44.782;10.356;2022-08-25T09:05:18;27.70;99.90
39983;DHT22;25670;44.782;10.356;2022-08-25T09:07:47;27.70;99.90
39983;DHT22;25670;44.782;10.356;2022-08-25T09:10:18;27.80;99.90
39983;DHT22;25670;44.782;10.356;2022-08-25T09:13:05;27.80;99.90
39983;DHT22;25670;44.782;10.356;2022-08-25T09:30:02;28.30;99.90
39983;DHT22;25670;44.782;10.356;2022-08-25T09:32:41;28.30;99.90
39983;DHT22;25670;44.782;10.356;2022-08-25T09:35:30;28.30;99.90
39983;DHT22;25670;44.782;10.356;2022-08-25T09:40:23;28.50;99.90
39983;DHT22;25670;44.782;10.356;2022-08-25T09:42:52;28.50;99.90
39983;DHT22;25670;44.782;10.356;2022-08-25T09:45:39;28.60;99.90
39983;DHT22;25670;44.782;10.356;2022-08-25T09:48:24;28.70;99.90
39983;DHT22;25670;44.782;10.356;2022-08-25T09:50:57;28.80;99.90
39983;DHT22;25670;44.782;10.356;2022-08-25T09:53:24;28.90;99.90
39983;DHT22;25670;44.782;10.356;2022-08-25T09:55:57;29.00;99.90
39983;DHT22;25670;44.782;10.356;2022-08-25T09:58:24;29.10;99.90
39983;DHT22;25670;44.782;10.356;2022-08-25T10:03:26;29.10;99.90
39983;DHT22;25670;44.782;10.356;2022-08-25T10:11:02;29.00;99.90
39983;DHT22;25670;44.782;10.356;2022-08-25T10:13:48;29.30;99.90
39983;DHT22;25670;44.782;10.356;2022-08-25T10:16:29;29.50;99.90
39983;DHT22;25670;44.782;10.356;2022-08-25T10:19:10;29.70;99.90
39983;DHT22;25670;44.782;10.356;2022-08-25T10:21:41;29.70;99.90
39983;DHT22;25670;44.782;10.356;2022-08-25T10:24:09;29.50;99.90
39983;DHT22;25670;44.782;10.356;2022-08-25T10:29:30;29.40;99.90
39983;DHT22;25670;44.782;10.356;2022-08-25T10:32:47;29.30;99.90
39983;DHT22;25670;44.782;10.356;2022-08-25T10:40:48;29.80;99.90
39983;DHT22;25670;44.782;10.356;2022-08-25T10:43:41;29.80;99.90
39983;DHT22;25670;44.782;10.356;2022-08-25T10:49:07;30.10;99.90
39983;DHT22;25670;44.782;10.356;2022-08-25T10:57:22;30.30;99.90
39983;DHT22;25670;44.782;10.356;2022-08-25T11:00:08;30.60;99.90
39983;DHT22;25670;44.782;10.356;2022-08-25T11:03:34;30.70;99.90
39983;DHT22;25670;44.782;10.356;2022-08-25T11:06:12;30.80;99.90
39983;DHT22;25670;44.782;10.356;2022-08-25T11:08:46;30.90;99.90
39983;DHT22;25670;44.782;10.356;2022-08-25T11:11:37;30.70;99.90
39983;DHT22;25670;44.782;10.356;2022-08-25T11:14:18;30.80;99.90
39983;DHT22;25670;44.782;10.356;2022-08-25T11:16:59;30.90;99.90
39983;DHT22;25670;44.782;10.356;2022-08-25T11:19:37;30.90;99.90
39983;DHT22;25670;44.782;10.356;2022-08-25T11:22:38;31.10;99.90
39983;DHT22;25670;44.782;10.356;2022-08-25T11:30:27;31.70;99.90
39983;DHT22;25670;44.782;10.356;2022-08-25T11:32:54;31.60;99.90
39983;DHT22;25670;44.782;10.356;2022-08-25T11:36:24;31.80;99.90
39983;DHT22;25670;44.782;10.356;2022-08-25T11:44:50;32.00;99.90
39983;DHT22;25670;44.782;10.356;2022-08-25T11:52:54;32.40;99.90
39983;DHT22;25670;44.782;10.356;2022-08-25T11:58:21;32.50;99.90
39983;DHT22;25670;44.782;10.356;2022-08-25T12:00:51;32.70;99.90
39983;DHT22;25670;44.782;10.356;2022-08-25T12:16:43;32.90;99.40
39983;DHT22;25670;44.782;10.356;2022-08-25T12:27:42;33.50;98.90
39983;DHT22;25670;44.782;10.356;2022-08-25T12:30:18;33.60;98.30
39983;DHT22;25670;44.782;10.356;2022-08-25T12:41:41;33.60;97.90
39983;DHT22;25670;44.782;10.356;2022-08-25T12:43:51;34.70;97.40
39983;DHT22;25670;44.782;10.356;2022-08-25T12:51:45;33.90;95.90
39983;DHT22;25670;44.782;10.356;2022-08-25T12:54:47;34.10;96.60
39983;DHT22;25670;44.782;10.356;2022-08-25T12:57:22;33.90;96.10
39983;DHT22;25670;44.782;10.356;2022-08-25T12:59:55;33.70;95.70
39983;DHT22;25670;44.782;10.356;2022-08-25T13:16:05;34.30;95.90
39983;DHT22;25670;44.782;10.356;2022-08-25T13:18:36;34.60;95.70
39983;DHT22;25670;44.782;10.356;2022-08-25T13:21:35;34.60;94.20
39983;DHT22;25670;44.782;10.356;2022-08-25T13:24:04;34.40;95.00
39983;DHT22;25670;44.782;10.356;2022-08-25T13:26:38;34.30;94.20
39983;DHT22;25670;44.782;10.356;2022-08-25T13:31:35;34.60;95.20
39983;DHT22;25670;44.782;10.356;2022-08-25T13:34:14;34.80;94.80
39983;DHT22;25670;44.782;10.356;2022-08-25T13:36:43;34.70;93.80
39983;DHT22;25670;44.782;10.356;2022-08-25T13:39:30;34.60;93.70
39983;DHT22;25670;44.782;10.356;2022-08-25T13:41:59;34.60;94.10
39983;DHT22;25670;44.782;10.356;2022-08-25T13:44:29;34.70;94.50
39983;DHT22;25670;44.782;10.356;2022-08-25T13:47:12;35.00;94.50
39983;DHT22;25670;44.782;10.356;2022-08-25T13:49:42;35.20;94.60
39983;DHT22;25670;44.782;10.356;2022-08-25T13:52:26;35.00;93.00
39983;DHT22;25670;44.782;10.356;2022-08-25T13:54:57;35.10;93.30
39983;DHT22;25670;44.782;10.356;2022-08-25T13:57:27;35.00;93.20
39983;DHT22;25670;44.782;10.356;2022-08-25T14:00:06;34.90;93.20
39983;DHT22;25670;44.782;10.356;2022-08-25T14:05:07;35.30;92.40
39983;DHT22;25670;44.782;10.356;2022-08-25T14:07:33;35.20;92.30
39983;DHT22;25670;44.782;10.356;2022-08-25T14:10:28;35.20;91.50
39983;DHT22;25670;44.782;10.356;2022-08-25T14:15:43;35.40;93.00
39983;DHT22;25670;44.782;10.356;2022-08-25T14:18:17;35.70;92.50
39983;DHT22;25670;44.782;10.356;2022-08-25T14:20:48;35.70;92.10
39983;DHT22;25670;44.782;10.356;2022-08-25T14:23:23;35.60;94.50
39983;DHT22;25670;44.782;10.356;2022-08-25T14:25:54;35.70;92.80
39983;DHT22;25670;44.782;10.356;2022-08-25T14:28:24;35.30;91.80
39983;DHT22;25670;44.782;10.356;2022-08-25T14:31:05;35.50;92.70
39983;DHT22;25670;44.782;10.356;2022-08-25T14:33:36;35.60;91.80
39983;DHT22;25670;44.782;10.356;2022-08-25T14:36:04;35.40;91.70
39983;DHT22;25670;44.782;10.356;2022-08-25T14:38:32;35.40;93.80
39983;DHT22;25670;44.782;10.356;2022-08-25T14:40:59;35.30;91.80
39983;DHT22;25670;44.782;10.356;2022-08-25T14:43:25;35.10;93.10
39983;DHT22;25670;44.782;10.356;2022-08-25T14:45:52;35.10;93.20
39983;DHT22;25670;44.782;10.356;2022-08-25T14:48:29;35.40;92.50
39983;DHT22;25670;44.782;10.356;2022-08-25T14:50:58;35.80;92.00
39983;DHT22;25670;44.782;10.356;2022-08-25T14:53:26;35.80;92.00
39983;DHT22;25670;44.782;10.356;2022-08-25T14:55:52;36.00;91.60
39983;DHT22;25670;44.782;10.356;2022-08-25T14:58:20;35.90;91.30
39983;DHT22;25670;44.782;10.356;2022-08-25T15:00:47;36.10;91.60
39983;DHT22;25670;44.782;10.356;2022-08-25T15:03:20;36.20;91.30
39983;DHT22;25670;44.782;10.356;2022-08-25T15:08:15;36.30;90.90
39983;DHT22;25670;44.782;10.356;2022-08-25T15:11:00;36.40;91.60
39983;DHT22;25670;44.782;10.356;2022-08-25T15:13:26;36.80;91.10
39983;DHT22;25670;44.782;10.356;2022-08-25T15:15:52;37.20;90.90
39983;DHT22;25670;44.782;10.356;2022-08-25T15:18:20;37.40;91.30
39983;DHT22;25670;44.782;10.356;2022-08-25T15:20:48;37.20;90.50
39983;DHT22;25670;44.782;10.356;2022-08-25T15:23:18;36.80;90.30
39983;DHT22;25670;44.782;10.356;2022-08-25T15:25:46;36.60;90.80
39983;DHT22;25670;44.782;10.356;2022-08-25T15:28:14;36.60;90.50
39983;DHT22;25670;44.782;10.356;2022-08-25T15:30:41;36.60;90.50
39983;DHT22;25670;44.782;10.356;2022-08-25T15:33:10;36.70;90.60
39983;DHT22;25670;44.782;10.356;2022-08-25T15:35:37;36.90;89.90
39983;DHT22;25670;44.782;10.356;2022-08-25T15:38:03;36.90;90.40
39983;DHT22;25670;44.782;10.356;2022-08-25T15:40:29;37.10;90.40
39983;DHT22;25670;44.782;10.356;2022-08-25T15:42:57;37.20;90.00
39983;DHT22;25670;44.782;10.356;2022-08-25T15:45:23;37.20;89.80
39983;DHT22;25670;44.782;10.356;2022-08-25T15:47:49;37.30;90.10
39983;DHT22;25670;44.782;10.356;2022-08-25T15:50:18;37.30;90.20
39983;DHT22;25670;44.782;10.356;2022-08-25T15:52:46;37.20;90.00
39983;DHT22;25670;44.782;10.356;2022-08-25T15:55:12;37.50;89.50
39983;DHT22;25670;44.782;10.356;2022-08-25T15:57:39;37.70;90.30
39983;DHT22;25670;44.782;10.356;2022-08-25T16:00:07;37.70;88.80
39983;DHT22;25670;44.782;10.356;2022-08-25T16:02:37;38.10;90.00
39983;DHT22;25670;44.782;10.356;2022-08-25T16:05:07;37.90;89.60
39983;DHT22;25670;44.782;10.356;2022-08-25T16:07:35;37.90;88.90
39983;DHT22;25670;44.782;10.356;2022-08-25T16:10:03;37.80;88.20
39983;DHT22;25670;44.782;10.356;2022-08-25T16:12:29;37.90;89.20
39983;DHT22;25670;44.782;10.356;2022-08-25T16:14:56;38.00;87.60
39983;DHT22;25670;44.782;10.356;2022-08-25T16:17:22;38.00;89.40
39983;DHT22;25670;44.782;10.356;2022-08-25T16:19:49;38.20;88.00
39983;DHT22;25670;44.782;10.356;2022-08-25T16:22:15;38.20;86.30
39983;DHT22;25670;44.782;10.356;2022-08-25T16:24:42;38.10;86.90
39983;DHT22;25670;44.782;10.356;2022-08-25T16:27:10;38.00;86.60
39983;DHT22;25670;44.782;10.356;2022-08-25T16:29:40;38.50;87.20
39983;DHT22;25670;44.782;10.356;2022-08-25T16:32:07;38.70;86.20
39983;DHT22;25670;44.782;10.356;2022-08-25T16:34:33;38.50;86.30
39983;DHT22;25670;44.782;10.356;2022-08-25T16:37:00;38.60;86.50
39983;DHT22;25670;44.782;10.356;2022-08-25T16:39:27;38.70;85.40
39983;DHT22;25670;44.782;10.356;2022-08-25T16:41:53;38.70;85.30
39983;DHT22;25670;44.782;10.356;2022-08-25T16:44:20;39.10;85.20
39983;DHT22;25670;44.782;10.356;2022-08-25T16:46:46;39.70;84.70
39983;DHT22;25670;44.782;10.356;2022-08-25T16:49:13;40.00;83.60
39983;DHT22;25670;44.782;10.356;2022-08-25T16:51:40;40.50;83.60
39983;DHT22;25670;44.782;10.356;2022-08-25T16:54:08;40.70;83.10
39983;DHT22;25670;44.782;10.356;2022-08-25T16:56:53;41.00;82.80
39983;DHT22;25670;44.782;10.356;2022-08-25T16:59:20;40.70;82.70
39983;DHT22;25670;44.782;10.356;2022-08-25T17:01:47;41.10;82.30
39983;DHT22;25670;44.782;10.356;2022-08-25T17:04:13;41.20;80.80
39983;DHT22;25670;44.782;10.356;2022-08-25T17:06:41;41.20;80.30
39983;DHT22;25670;44.782;10.356;2022-08-25T17:09:11;41.20;81.30
39983;DHT22;25670;44.782;10.356;2022-08-25T17:11:46;41.30;79.70
39983;DHT22;25670;44.782;10.356;2022-08-25T17:14:17;40.90;79.70
39983;DHT22;25670;44.782;10.356;2022-08-25T17:16:44;40.70;78.30
39983;DHT22;25670;44.782;10.356;2022-08-25T17:19:12;40.90;80.40
39983;DHT22;25670;44.782;10.356;2022-08-25T17:21:42;41.00;79.00
39983;DHT22;25670;44.782;10.356;2022-08-25T17:24:10;40.70;78.00
39983;DHT22;25670;44.782;10.356;2022-08-25T17:26:38;40.20;77.90
39983;DHT22;25670;44.782;10.356;2022-08-25T17:29:05;39.60;78.40
39983;DHT22;25670;44.782;10.356;2022-08-25T17:31:32;39.40;79.60
39983;DHT22;25670;44.782;10.356;2022-08-25T17:33:59;39.20;79.80
39983;DHT22;25670;44.782;10.356;2022-08-25T17:36:26;38.90;80.40
39983;DHT22;25670;44.782;10.356;2022-08-25T17:38:53;38.90;80.90
39983;DHT22;25670;44.782;10.356;2022-08-25T17:41:19;38.70;80.60
39983;DHT22;25670;44.782;10.356;2022-08-25T17:43:46;38.00;80.70
39983;DHT22;25670;44.782;10.356;2022-08-25T17:46:12;37.70;82.00
39983;DHT22;25670;44.782;10.356;2022-08-25T17:48:39;37.00;82.40
39983;DHT22;25670;44.782;10.356;2022-08-25T17:51:06;36.50;83.50
39983;DHT22;25670;44.782;10.356;2022-08-25T17:53:33;35.90;84.10
39983;DHT22;25670;44.782;10.356;2022-08-25T17:56:04;35.30;84.80
39983;DHT22;25670;44.782;10.356;2022-08-25T17:58:31;34.60;86.70
39983;DHT22;25670;44.782;10.356;2022-08-25T18:00:58;33.90;87.90
39983;DHT22;25670;44.782;10.356;2022-08-25T18:03:25;33.10;89.20
39983;DHT22;25670;44.782;10.356;2022-08-25T18:05:52;32.30;90.30
39983;DHT22;25670;44.782;10.356;2022-08-25T18:08:18;31.90;91.10
39983;DHT22;25670;44.782;10.356;2022-08-25T18:10:45;31.40;91.90
39983;DHT22;25670;44.782;10.356;2022-08-25T18:13:12;30.90;92.40
39983;DHT22;25670;44.782;10.356;2022-08-25T18:15:38;30.40;93.30
39983;DHT22;25670;44.782;10.356;2022-08-25T18:18:05;30.10;93.70
39983;DHT22;25670;44.782;10.356;2022-08-25T18:20:32;29.90;95.30
39983;DHT22;25670;44.782;10.356;2022-08-25T18:22:58;29.50;95.00
39983;DHT22;25670;44.782;10.356;2022-08-25T18:25:25;29.30;95.80
39983;DHT22;25670;44.782;10.356;2022-08-25T18:27:53;29.10;96.50
39983;DHT22;25670;44.782;10.356;2022-08-25T18:30:20;28.90;97.60
39983;DHT22;25670;44.782;10.356;2022-08-25T18:32:47;28.60;98.60
39983;DHT22;25670;44.782;10.356;2022-08-25T18:35:13;28.40;99.90
39983;DHT22;25670;44.782;10.356;2022-08-25T18:37:40;28.20;99.90
39983;DHT22;25670;44.782;10.356;2022-08-25T18:40:24;28.00;99.90
39983;DHT22;25670;44.782;10.356;2022-08-25T18:43:05;27.80;99.90
39983;DHT22;25670;44.782;10.356;2022-08-25T18:45:45;27.50;99.90
39983;DHT22;25670;44.782;10.356;2022-08-25T18:48:17;27.50;99.90
39983;DHT22;25670;44.782;10.356;2022-08-25T18:50:45;27.30;99.90
39983;DHT22;25670;44.782;10.356;2022-08-25T18:53:12;27.20;99.90
39983;DHT22;25670;44.782;10.356;2022-08-25T18:55:39;27.20;99.90
39983;DHT22;25670;44.782;10.356;2022-08-25T18:58:07;27.00;99.90
39983;DHT22;25670;44.782;10.356;2022-08-25T19:00:35;26.90;99.90
39983;DHT22;25670;44.782;10.356;2022-08-25T19:03:02;26.90;99.90
39983;DHT22;25670;44.782;10.356;2022-08-25T19:05:53;27.30;99.90
39983;DHT22;25670;44.782;10.356;2022-08-25T19:08:57;26.40;99.90
39983;DHT22;25670;44.782;10.356;2022-08-25T19:11:23;26.50;99.90
39983;DHT22;25670;44.782;10.356;2022-08-25T19:13:50;26.50;99.90
39983;DHT22;25670;44.782;10.356;2022-08-25T19:16:34;26.50;99.90
39983;DHT22;25670;44.782;10.356;2022-08-25T19:19:04;26.40;99.90
39983;DHT22;25670;44.782;10.356;2022-08-25T19:21:32;26.30;99.90
39983;DHT22;25670;44.782;10.356;2022-08-25T19:23:59;26.30;99.90
39983;DHT22;25670;44.782;10.356;2022-08-25T19:26:25;26.20;99.90
39983;DHT22;25670;44.782;10.356;2022-08-25T19:28:52;26.20;99.90
39983;DHT22;25670;44.782;10.356;2022-08-25T19:31:20;26.10;99.90
39983;DHT22;25670;44.782;10.356;2022-08-25T19:33:48;26.10;99.90
39983;DHT22;25670;44.782;10.356;2022-08-25T19:36:17;26.00;99.90
39983;DHT22;25670;44.782;10.356;2022-08-25T19:38:43;26.00;99.90
39983;DHT22;25670;44.782;10.356;2022-08-25T19:41:11;26.10;99.90
39983;DHT22;25670;44.782;10.356;2022-08-25T19:43:37;26.10;99.90
39983;DHT22;25670;44.782;10.356;2022-08-25T19:46:05;26.00;99.90
39983;DHT22;25670;44.782;10.356;2022-08-25T19:48:32;26.00;99.90
39983;DHT22;25670;44.782;10.356;2022-08-25T19:50:58;25.40;99.90
39983;DHT22;25670;44.782;10.356;2022-08-25T19:53:25;25.90;99.90
39983;DHT22;25670;44.782;10.356;2022-08-25T19:55:51;25.90;99.90
39983;DHT22;25670;44.782;10.356;2022-08-25T19:58:18;25.80;99.90
39983;DHT22;25670;44.782;10.356;2022-08-25T20:00:44;25.60;99.90
39983;DHT22;25670;44.782;10.356;2022-08-25T20:03:10;25.60;99.90
39983;DHT22;25670;44.782;10.356;2022-08-25T20:05:37;25.60;99.90
39983;DHT22;25670;44.782;10.356;2022-08-25T20:08:04;25.50;99.90
39983;DHT22;25670;44.782;10.356;2022-08-25T20:10:32;25.40;99.90
39983;DHT22;25670;44.782;10.356;2022-08-25T20:12:58;25.60;99.90
39983;DHT22;25670;44.782;10.356;2022-08-25T20:15:25;25.30;99.90
39983;DHT22;25670;44.782;10.356;2022-08-25T20:17:51;25.40;99.90
39983;DHT22;25670;44.782;10.356;2022-08-25T20:20:19;25.40;99.90
39983;DHT22;25670;44.782;10.356;2022-08-25T20:22:47;25.40;99.90
39983;DHT22;25670;44.782;10.356;2022-08-25T20:25:20;25.40;99.90
39983;DHT22;25670;44.782;10.356;2022-08-25T20:27:52;25.40;99.90
39983;DHT22;25670;44.782;10.356;2022-08-25T20:30:24;25.90;99.90
39983;DHT22;25670;44.782;10.356;2022-08-25T20:32:53;25.00;99.90
39983;DHT22;25670;44.782;10.356;2022-08-25T20:35:21;25.40;99.90
39983;DHT22;25670;44.782;10.356;2022-08-25T20:37:49;25.40;99.90
39983;DHT22;25670;44.782;10.356;2022-08-25T20:40:18;25.40;99.90
39983;DHT22;25670;44.782;10.356;2022-08-25T20:42:48;25.20;99.90
39983;DHT22;25670;44.782;10.356;2022-08-25T20:45:17;25.10;99.90
39983;DHT22;25670;44.782;10.356;2022-08-25T20:47:46;25.10;99.90
39983;DHT22;25670;44.782;10.356;2022-08-25T20:50:14;25.10;99.90
39983;DHT22;25670;44.782;10.356;2022-08-25T20:52:41;25.00;99.90
39983;DHT22;25670;44.782;10.356;2022-08-25T20:55:08;24.70;99.90
39983;DHT22;25670;44.782;10.356;2022-08-25T20:57:34;25.00;99.90
39983;DHT22;25670;44.782;10.356;2022-08-25T21:00:02;24.90;99.90
39983;DHT22;25670;44.782;10.356;2022-08-25T21:02:29;24.90;99.90
39983;DHT22;25670;44.782;10.356;2022-08-25T21:04:55;24.80;99.90
39983;DHT22;25670;44.782;10.356;2022-08-25T21:07:22;24.40;99.90
39983;DHT22;25670;44.782;10.356;2022-08-25T21:09:49;24.70;99.90
39983;DHT22;25670;44.782;10.356;2022-08-25T21:12:15;24.70;99.90
39983;DHT22;25670;44.782;10.356;2022-08-25T21:14:41;24.60;99.90
39983;DHT22;25670;44.782;10.356;2022-08-25T21:17:13;24.60;99.90
39983;DHT22;25670;44.782;10.356;2022-08-25T21:19:40;24.50;99.90
39983;DHT22;25670;44.782;10.356;2022-08-25T21:22:07;24.50;99.90
39983;DHT22;25670;44.782;10.356;2022-08-25T21:24:37;24.50;99.90
39983;DHT22;25670;44.782;10.356;2022-08-25T21:27:04;24.40;99.90
39983;DHT22;25670;44.782;10.356;2022-08-25T21:31:57;24.40;99.90
39983;DHT22;25670;44.782;10.356;2022-08-25T21:34:27;24.30;99.90
39983;DHT22;25670;44.782;10.356;2022-08-25T21:36:54;24.20;99.90
39983;DHT22;25670;44.782;10.356;2022-08-25T21:39:23;24.30;99.90
39983;DHT22;25670;44.782;10.356;2022-08-25T21:41:51;24.20;99.90
39983;DHT22;25670;44.782;10.356;2022-08-25T21:44:18;24.10;99.90
39983;DHT22;25670;44.782;10.356;2022-08-25T21:46:45;24.00;99.90
39983;DHT22;25670;44.782;10.356;2022-08-25T21:49:11;24.00;99.90
39983;DHT22;25670;44.782;10.356;2022-08-25T21:51:40;24.00;99.90
39983;DHT22;25670;44.782;10.356;2022-08-25T21:54:11;23.70;99.90
39983;DHT22;25670;44.782;10.356;2022-08-25T21:56:52;22.10;99.90
39983;DHT22;25670;44.782;10.356;2022-08-25T21:59:21;23.90;99.90
39983;DHT22;25670;44.782;10.356;2022-08-25T22:01:50;23.90;99.90
39983;DHT22;25670;44.782;10.356;2022-08-25T22:04:19;23.90;99.90
39983;DHT22;25670;44.782;10.356;2022-08-25T22:06:46;23.90;99.90
39983;DHT22;25670;44.782;10.356;2022-08-25T22:09:12;23.90;99.90
39983;DHT22;25670;44.782;10.356;2022-08-25T22:11:40;23.80;99.90
39983;DHT22;25670;44.782;10.356;2022-08-25T22:14:08;23.80;99.90
39983;DHT22;25670;44.782;10.356;2022-08-25T22:16:35;23.70;99.90
39983;DHT22;25670;44.782;10.356;2022-08-25T22:19:03;23.70;99.90
39983;DHT22;25670;44.782;10.356;2022-08-25T22:21:30;23.60;99.90
39983;DHT22;25670;44.782;10.356;2022-08-25T22:23:58;23.60;99.90
39983;DHT22;25670;44.782;10.356;2022-08-25T22:26:26;23.50;99.90
39983;DHT22;25670;44.782;10.356;2022-08-25T22:28:55;23.50;99.90
39983;DHT22;25670;44.782;10.356;2022-08-25T22:31:22;23.50;99.90
39983;DHT22;25670;44.782;10.356;2022-08-25T22:33:49;23.30;99.90
39983;DHT22;25670;44.782;10.356;2022-08-25T22:36:27;23.30;99.90
39983;DHT22;25670;44.782;10.356;2022-08-25T22:38:54;23.30;99.90
39983;DHT22;25670;44.782;10.356;2022-08-25T22:41:22;23.30;99.90
39983;DHT22;25670;44.782;10.356;2022-08-25T22:43:50;23.30;99.90
39983;DHT22;25670;44.782;10.356;2022-08-25T22:46:18;23.30;99.90
39983;DHT22;25670;44.782;10.356;2022-08-25T22:48:45;23.30;99.90
39983;DHT22;25670;44.782;10.356;2022-08-25T22:51:20;23.30;99.90
39983;DHT22;25670;44.782;10.356;2022-08-25T22:53:47;23.40;99.90
39983;DHT22;25670;44.782;10.356;2022-08-25T22:56:16;23.40;99.90
39983;DHT22;25670;44.782;10.356;2022-08-25T22:58:43;23.40;99.90
39983;DHT22;25670;44.782;10.356;2022-08-25T23:01:17;23.30;99.90